Time;durP1;ratioP1;P1;durP2;ratioP2;P2;SDS_P1;SDS_P2;PMS_P1;PMS_P2;Temp;Humidity;BMP_temperature;BMP_pressure;BME280_temperature;BME280_humidity;BME280_pressure;Samples;Min_cycle;Max_cycle;Signal;HPM_P1;HPM_P2
2022/06/14 03:02:55;;;;;;;7.15;3.78;;;10.30;99.90;;;;;;6297412;22;20019;-80
2022/06/14 03:05:42;;;;;;;7.10;3.78;;;10.30;99.90;;;;;;6283634;22;20062;-81
2022/06/14 03:08:19;;;;;;;9.80;4.00;;;10.20;99.90;;;;;;6309232;22;20541;-79
2022/06/14 03:11:15;;;;;;;6.97;3.20;;;10.20;99.90;;;;;;6303476;22;20040;-79
2022/06/14 03:14:15;;;;;;;11.60;3.95;;;10.20;99.90;;;;;;6270472;22;20438;-81
2022/06/14 03:17:01;;;;;;;9.23;3.10;;;10.20;99.90;;;;;;6279279;22;20083;-81
2022/06/14 03:19:52;;;;;;;5.25;2.67;;;10.20;99.90;;;;;;6279705;22;20095;-80
2022/06/14 03:22:24;;;;;;;12.05;3.42;;;10.10;99.90;;;;;;6277651;22;20449;-80
2022/06/14 03:25:00;;;;;;;9.57;3.92;;;10.10;99.90;;;;;;6280141;22;20015;-81
2022/06/14 03:27:37;;;;;;;9.75;4.53;;;10.10;99.90;;;;;;6278003;22;20007;-81
2022/06/14 03:30:21;;;;;;;8.40;3.78;;;10.10;99.90;;;;;;6279674;22;20095;-81
2022/06/14 03:33:00;;;;;;;7.82;3.90;;;10.10;99.90;;;;;;6253361;22;20373;-81
2022/06/14 03:35:34;;;;;;;8.30;3.50;;;10.10;99.90;;;;;;6277827;22;20468;-80
2022/06/14 03:38:20;;;;;;;11.07;3.87;;;10.10;99.90;;;;;;6278012;22;20091;-82
2022/06/14 03:40:47;;;;;;;10.25;3.90;;;10.10;99.90;;;;;;6279015;22;20050;-80
2022/06/14 03:43:13;;;;;;;13.50;3.97;;;10.10;99.90;;;;;;6277912;22;20297;-81
2022/06/14 03:45:52;;;;;;;9.75;3.75;;;10.10;99.90;;;;;;6277920;22;20086;-80
2022/06/14 03:48:18;;;;;;;8.75;3.78;;;10.10;99.90;;;;;;6277765;22;20016;-81
2022/06/14 03:51:26;;;;;;;9.35;3.55;;;10.00;99.90;;;;;;6277813;22;20011;-80
2022/06/14 03:53:56;;;;;;;6.00;3.05;;;10.00;99.90;;;;;;6185979;23;20009;-80
2022/06/14 03:56:46;;;;;;;8.82;3.25;;;10.00;99.90;;;;;;6257002;22;20008;-80
2022/06/14 03:59:25;;;;;;;9.63;3.47;;;10.00;99.90;;;;;;6277895;22;20007;-80
2022/06/14 04:02:02;;;;;;;7.75;3.67;;;10.00;99.90;;;;;;6277626;22;20016;-80
2022/06/14 04:04:39;;;;;;;8.75;3.67;;;10.00;99.90;;;;;;6277899;22;20011;-80
2022/06/14 04:07:11;;;;;;;8.48;3.40;;;10.00;99.90;;;;;;6277419;22;20050;-80
2022/06/14 04:09:48;;;;;;;7.07;3.00;;;10.00;99.90;;;;;;6277607;22;20023;-80
2022/06/14 04:12:20;;;;;;;6.95;3.00;;;10.00;99.90;;;;;;6279399;22;20086;-80
2022/06/14 04:15:22;;;;;;;7.25;3.50;;;10.00;99.90;;;;;;6277822;22;20015;-81
2022/06/14 04:18:00;;;;;;;8.73;3.22;;;10.00;99.90;;;;;;6252201;22;20362;-80
2022/06/14 04:20:41;;;;;;;8.07;3.70;;;10.00;99.90;;;;;;6277550;22;20346;-80
2022/06/14 04:23:23;;;;;;;14.00;4.63;;;10.00;99.90;;;;;;6279458;22;20022;-81
2022/06/14 04:26:04;;;;;;;11.98;4.45;;;10.10;99.90;;;;;;6252131;22;20561;-79
2022/06/14 04:28:36;;;;;;;12.02;4.13;;;10.10;99.90;;;;;;6303666;22;20449;-79
2022/06/14 04:31:11;;;;;;;11.63;4.32;;;10.10;99.90;;;;;;6303448;22;20012;-79
2022/06/14 04:33:46;;;;;;;10.27;4.18;;;10.10;99.90;;;;;;6278998;22;20014;-81
2022/06/14 04:36:17;;;;;;;11.07;4.63;;;10.10;99.90;;;;;;6303157;22;20050;-80
2022/06/14 04:38:49;;;;;;;9.43;3.67;;;10.10;99.90;;;;;;6279297;22;20012;-81
2022/06/14 04:41:39;;;;;;;9.27;3.58;;;10.10;99.90;;;;;;6277762;22;20024;-80
2022/06/14 04:44:12;;;;;;;10.80;4.03;;;10.10;99.90;;;;;;6277086;22;20012;-81
2022/06/14 04:46:49;;;;;;;12.65;4.07;;;10.20;99.90;;;;;;6279133;22;20081;-81
2022/06/14 04:49:31;;;;;;;12.07;4.55;;;10.20;99.90;;;;;;6251649;22;20043;-80
2022/06/14 04:52:23;;;;;;;9.75;4.13;;;10.30;99.90;;;;;;6279197;22;20079;-80
2022/06/14 04:54:59;;;;;;;11.27;4.25;;;10.30;99.90;;;;;;6276742;22;20019;-82
2022/06/14 04:57:43;;;;;;;9.52;4.72;;;10.30;99.90;;;;;;6251902;22;20018;-80
2022/06/14 05:00:27;;;;;;;7.85;4.10;;;10.40;99.90;;;;;;6251650;22;20441;-81
2022/06/14 05:03:30;;;;;;;10.95;4.15;;;10.40;99.90;;;;;;6278938;22;20016;-82
2022/06/14 05:06:04;;;;;;;12.32;4.57;;;10.50;99.90;;;;;;6302978;22;20018;-81
2022/06/14 05:08:49;;;;;;;9.13;3.80;;;10.40;99.90;;;;;;6251331;22;20344;-80
2022/06/14 05:11:30;;;;;;;9.48;3.90;;;10.50;99.90;;;;;;6279464;22;20043;-80
2022/06/14 05:14:04;;;;;;;11.73;3.95;;;10.60;99.90;;;;;;6278670;22;20507;-80
2022/06/14 05:16:35;;;;;;;10.65;3.83;;;10.60;99.90;;;;;;6277225;22;20020;-81
2022/06/14 05:19:09;;;;;;;10.73;3.88;;;10.70;99.90;;;;;;6278379;22;20376;-81
2022/06/14 05:22:03;;;;;;;12.35;4.00;;;10.70;99.90;;;;;;6277526;22;20019;-79
2022/06/14 05:24:30;;;;;;;12.52;4.70;;;10.70;99.90;;;;;;6302926;22;20016;-81
2022/06/14 05:27:12;;;;;;;11.95;4.22;;;10.80;99.90;;;;;;6278805;22;20008;-81
2022/06/14 05:29:59;;;;;;;9.40;3.88;;;10.80;99.90;;;;;;6277079;22;20019;-81
2022/06/14 05:32:27;;;;;;;11.23;3.83;;;10.90;99.90;;;;;;6277157;22;20064;-80
2022/06/14 05:34:59;;;;;;;11.05;4.05;;;11.00;99.90;;;;;;6277216;22;20445;-81
2022/06/14 05:37:43;;;;;;;12.20;4.68;;;11.10;99.90;;;;;;6277140;22;20022;-80
2022/06/14 05:40:26;;;;;;;12.25;3.83;;;11.10;99.90;;;;;;6278505;22;20008;-80
2022/06/14 05:43:09;;;;;;;11.35;3.30;;;11.20;99.90;;;;;;6279220;22;20370;-81
2022/06/14 05:45:42;;;;;;;11.40;4.13;;;11.30;99.90;;;;;;6278858;22;20007;-80
2022/06/14 05:48:11;;;;;;;14.75;3.97;;;11.40;99.90;;;;;;6302700;22;20015;-81
2022/06/14 05:50:44;;;;;;;10.23;3.42;;;11.50;99.90;;;;;;6278506;22;20334;-80
2022/06/14 05:53:19;;;;;;;13.88;3.50;;;11.60;99.90;;;;;;6278805;22;20018;-81
2022/06/14 05:55:51;;;;;;;10.23;3.15;;;11.70;99.90;;;;;;6278099;22;20062;-80
2022/06/14 05:58:37;;;;;;;12.52;3.50;;;11.80;99.90;;;;;;6278792;22;20043;-82
2022/06/14 06:01:19;;;;;;;13.40;3.72;;;11.80;99.90;;;;;;6302465;22;20445;-80
2022/06/14 06:03:54;;;;;;;9.95;3.70;;;11.90;99.90;;;;;;6276451;22;20441;-80
2022/06/14 06:06:31;;;;;;;9.27;3.30;;;12.00;99.90;;;;;;6278524;22;20011;-81
2022/06/14 06:09:05;;;;;;;9.70;3.00;;;12.10;99.90;;;;;;6276269;22;20088;-82
2022/06/14 06:12:07;;;;;;;9.77;3.35;;;12.20;99.90;;;;;;6277834;22;20010;-81
2022/06/14 06:14:35;;;;;;;11.30;3.72;;;12.30;99.90;;;;;;6257693;22;20016;-81
2022/06/14 06:17:16;;;;;;;8.70;3.10;;;12.30;99.90;;;;;;6276774;22;20035;-81
2022/06/14 06:20:00;;;;;;;10.07;3.45;;;12.40;99.90;;;;;;6302861;22;20012;-80
2022/06/14 06:22:33;;;;;;;8.60;3.20;;;12.50;99.90;;;;;;6276520;22;20442;-82
2022/06/14 06:25:07;;;;;;;12.30;3.70;;;12.50;99.90;;;;;;6276884;22;20039;-81
2022/06/14 06:27:40;;;;;;;13.63;3.72;;;12.60;99.90;;;;;;6278410;22;20358;-82
2022/06/14 06:30:15;;;;;;;7.63;3.28;;;12.70;99.90;;;;;;6302957;22;20041;-82
2022/06/14 06:32:42;;;;;;;10.70;3.38;;;12.70;99.90;;;;;;6279538;22;20083;-81
2022/06/14 06:35:09;;;;;;;13.00;3.95;;;12.90;99.90;;;;;;6280578;22;20022;-83
2022/06/14 06:37:54;;;;;;;9.73;3.25;;;12.90;99.90;;;;;;6281190;22;20008;-80
2022/06/14 06:40:23;;;;;;;11.77;3.43;;;13.00;99.90;;;;;;6280638;22;20042;-81
2022/06/14 06:42:56;;;;;;;14.00;3.92;;;13.00;99.90;;;;;;6278961;22;20309;-81
2022/06/14 06:45:23;;;;;;;11.93;3.20;;;13.00;99.90;;;;;;6279271;22;20043;-81
2022/06/14 06:47:54;;;;;;;9.95;3.53;;;13.10;99.90;;;;;;6281474;22;20007;-81
2022/06/14 06:50:33;;;;;;;10.32;3.22;;;13.10;99.90;;;;;;6281755;22;20008;-81
2022/06/14 06:53:13;;;;;;;8.73;3.13;;;13.20;99.90;;;;;;6282776;22;20022;-81
2022/06/14 06:55:58;;;;;;;13.55;3.72;;;13.20;99.90;;;;;;6298276;22;20067;-78
2022/06/14 06:58:38;;;;;;;;;;;13.20;99.90;;;;;;6321349;22;20015;-81
2022/06/14 07:01:11;;;;;;;8.95;2.97;;;13.30;99.90;;;;;;6274460;22;19916;-75
2022/06/14 07:04:02;;;;;;;7.97;2.83;;;13.40;99.90;;;;;;6249181;22;20052;-81
2022/06/14 07:06:40;;;;;;;9.98;2.80;;;13.40;99.90;;;;;;6250947;22;20027;-80
2022/06/14 07:09:17;;;;;;;9.00;2.75;;;13.50;99.90;;;;;;6223048;23;20441;-82
2022/06/14 07:11:48;;;;;;;8.77;2.50;;;13.70;99.90;;;;;;6249826;22;20019;-80
2022/06/14 07:14:26;;;;;;;6.95;2.05;;;13.80;99.90;;;;;;6251966;22;20058;-79
2022/06/14 07:17:28;;;;;;;7.35;1.63;;;13.90;99.90;;;;;;6248280;23;20009;-81
2022/06/14 07:20:07;;;;;;;6.72;1.88;;;14.00;99.90;;;;;;6223171;23;20197;-80
2022/06/14 07:22:48;;;;;;;7.13;1.80;;;14.10;99.90;;;;;;6222523;23;20087;-80
2022/06/14 07:25:19;;;;;;;5.82;1.85;;;14.20;99.90;;;;;;6249838;22;20086;-80
2022/06/14 07:28:01;;;;;;;5.50;1.73;;;14.30;99.90;;;;;;6249597;22;20060;-82
2022/06/14 07:30:36;;;;;;;6.75;1.50;;;14.30;99.90;;;;;;6222772;23;20094;-81
2022/06/14 07:33:03;;;;;;;6.90;1.80;;;14.40;99.90;;;;;;6273593;22;20449;-80
2022/06/14 07:36:06;;;;;;;6.50;1.70;;;14.50;99.90;;;;;;6247931;22;20103;-81
2022/06/14 07:38:37;;;;;;;4.68;1.75;;;14.60;99.90;;;;;;6187268;22;20086;-81
2022/06/14 07:41:42;;;;;;;7.93;2.13;;;14.70;99.90;;;;;;6222495;23;20020;-80
2022/06/14 07:44:21;;;;;;;8.02;2.63;;;14.90;99.90;;;;;;6245737;23;20095;-81
2022/06/14 07:46:54;;;;;;;6.32;1.77;;;14.90;99.90;;;;;;6273061;22;20435;-80
2022/06/14 07:49:30;;;;;;;4.90;1.40;;;15.00;99.90;;;;;;6247351;23;20016;-80
2022/06/14 07:52:25;;;;;;;6.18;1.63;;;15.00;99.90;;;;;;6247371;23;20015;-81
2022/06/14 07:54:57;;;;;;;6.97;2.15;;;15.00;99.90;;;;;;6208481;23;20441;-81
2022/06/14 07:57:31;;;;;;;7.30;1.88;;;15.10;99.90;;;;;;6247291;23;20043;-81
2022/06/14 08:03:15;;;;;;;5.18;1.48;;;15.20;99.90;;;;;;6248809;23;20438;-81
2022/06/14 08:05:45;;;;;;;6.00;1.70;;;15.30;99.90;;;;;;6272754;22;20008;-81
2022/06/14 08:08:16;;;;;;;6.63;1.92;;;15.50;99.90;;;;;;6249416;22;20015;-81
2022/06/14 08:10:47;;;;;;;4.72;1.65;;;15.60;99.90;;;;;;6247400;23;20328;-80
2022/06/14 08:13:17;;;;;;;8.88;1.95;;;15.60;99.90;;;;;;6247803;23;20016;-81
2022/06/14 08:15:51;;;;;;;7.55;1.73;;;15.50;99.90;;;;;;6248941;22;20012;-81
2022/06/14 08:18:52;;;;;;;7.33;2.00;;;15.40;99.90;;;;;;6246793;23;20022;-82
2022/06/14 08:21:27;;;;;;;7.25;2.05;;;15.30;99.90;;;;;;6248486;22;20474;-80
2022/06/14 08:24:05;;;;;;;9.07;2.83;;;15.30;99.90;;;;;;6246890;23;20043;-81
2022/06/14 08:26:54;;;;;;;5.10;1.92;;;15.30;99.90;;;;;;6246319;23;20008;-81
2022/06/14 08:29:27;;;;;;;8.23;2.42;;;15.30;99.90;;;;;;6248675;22;20019;-81
2022/06/14 08:31:56;;;;;;;8.35;2.33;;;15.30;99.90;;;;;;6248618;22;20083;-80
2022/06/14 08:34:42;;;;;;;5.55;2.00;;;15.40;99.90;;;;;;6246262;23;20430;-81
2022/06/14 08:37:17;;;;;;;8.45;1.75;;;15.50;99.90;;;;;;6246377;23;20055;-81
2022/06/14 08:39:47;;;;;;;7.28;1.60;;;15.80;99.90;;;;;;6246463;23;20377;-81
2022/06/14 08:42:29;;;;;;;5.00;1.45;;;15.80;99.90;;;;;;6246407;23;20021;-81
2022/06/14 08:44:59;;;;;;;4.63;1.40;;;15.90;99.90;;;;;;6271950;22;20095;-81
2022/06/14 08:47:57;;;;;;;4.45;1.27;;;15.80;99.90;;;;;;6246512;23;20008;-81
2022/06/14 08:50:45;;;;;;;6.90;1.50;;;15.80;99.90;;;;;;6245641;23;20012;-80
2022/06/14 08:53:41;;;;;;;7.47;1.80;;;15.70;99.90;;;;;;6248028;22;20066;-81
2022/06/14 08:56:15;;;;;;;4.95;1.85;;;15.80;99.90;;;;;;6220299;23;20015;-80
2022/06/14 08:59:17;;;;;;;4.93;1.52;;;16.00;99.90;;;;;;6245591;23;20016;-81
2022/06/14 09:02:20;;;;;;;4.78;1.58;;;16.10;99.90;;;;;;6225937;22;20468;-82
2022/06/14 09:05:18;;;;;;;3.83;1.10;;;16.30;99.90;;;;;;6278765;22;20049;-82
2022/06/14 09:08:05;;;;;;;3.90;1.23;;;16.50;99.90;;;;;;6250917;22;20012;-80
2022/06/14 09:11:10;;;;;;;4.22;1.27;;;16.60;99.90;;;;;;6251062;22;20452;-82
2022/06/14 09:14:01;;;;;;;3.90;1.00;;;16.80;99.90;;;;;;6251845;22;20099;-82
2022/06/14 09:16:37;;;;;;;5.40;1.30;;;17.00;99.90;;;;;;6278450;22;20007;-81
2022/06/14 09:19:18;;;;;;;5.50;1.25;;;17.20;99.90;;;;;;6251088;22;20045;-81
2022/06/14 09:22:06;;;;;;;4.15;1.30;;;17.40;99.90;;;;;;6250588;22;20019;-82
2022/06/14 09:24:53;;;;;;;4.03;1.10;;;17.20;99.90;;;;;;6225436;22;20011;-82
2022/06/14 09:27:29;;;;;;;5.13;1.17;;;17.10;99.90;;;;;;6250925;22;20083;-82
2022/06/14 09:30:27;;;;;;;4.65;1.30;;;16.90;99.90;;;;;;6252063;22;20016;-81
2022/06/14 09:33:20;;;;;;;5.88;1.20;;;16.80;99.90;;;;;;6251050;22;20016;-81
2022/06/14 09:36:04;;;;;;;3.35;1.30;;;16.80;99.90;;;;;;6251115;22;20441;-81
2022/06/14 09:39:01;;;;;;;4.05;1.30;;;16.70;99.90;;;;;;6251614;22;20481;-81
2022/06/14 09:41:55;;;;;;;4.32;1.17;;;16.60;99.90;;;;;;6278266;22;20075;-81
2022/06/14 09:44:20;;;;;;;3.70;1.45;;;16.60;99.90;;;;;;6278448;22;20046;-81
2022/06/14 09:47:23;;;;;;;2.88;1.10;;;16.70;99.90;;;;;;6250821;22;20016;-81
2022/06/14 09:50:27;;;;;;;2.58;1.00;;;16.90;99.90;;;;;;6250904;22;20055;-81
2022/06/14 09:53:08;;;;;;;5.00;1.30;;;17.50;99.90;;;;;;6278190;22;20011;-83
2022/06/14 09:56:16;;;;;;;6.72;1.08;;;17.80;99.90;;;;;;6278157;22;20042;-82
2022/06/14 09:59:19;;;;;;;4.53;1.13;;;18.20;99.90;;;;;;6250731;22;20008;-83
2022/06/14 10:02:01;;;;;;;5.32;1.40;;;18.40;99.90;;;;;;6277797;22;20051;-82
2022/06/14 10:04:48;;;;;;;5.07;1.65;;;18.30;99.90;;;;;;6251025;22;20057;-81
2022/06/14 10:07:32;;;;;;;4.80;1.83;;;17.90;99.90;;;;;;6250953;22;20038;-82
2022/06/14 10:10:19;;;;;;;3.85;1.05;;;17.80;99.90;;;;;;6278206;22;20039;-80
2022/06/14 10:13:10;;;;;;;5.47;1.67;;;17.70;99.90;;;;;;6225412;22;20450;-82
2022/06/14 10:15:47;;;;;;;3.72;1.40;;;17.60;99.90;;;;;;6251429;22;20011;-81
2022/06/14 10:18:46;;;;;;;4.43;1.35;;;17.40;99.90;;;;;;6251191;22;20032;-82
2022/06/14 10:21:22;;;;;;;3.70;1.30;;;17.40;99.90;;;;;;6250552;22;20020;-82
2022/06/14 10:23:59;;;;;;;7.75;2.13;;;17.70;99.90;;;;;;6250655;22;20011;-82
2022/06/14 10:29:38;;;;;;;6.05;1.48;;;18.20;99.90;;;;;;6278175;22;20366;-80
2022/06/14 10:32:10;;;;;;;3.17;1.10;;;18.40;99.90;;;;;;6250775;22;20015;-83
2022/06/14 10:35:13;;;;;;;3.40;0.80;;;18.60;99.90;;;;;;6278128;22;20044;-81
2022/06/14 10:37:57;;;;;;;3.10;1.00;;;18.80;99.90;;;;;;6249906;22;20105;-81
2022/06/14 10:40:53;;;;;;;4.22;0.90;;;19.20;99.90;;;;;;6277802;22;20008;-81
2022/06/14 10:43:18;;;;;;;3.83;1.00;;;19.50;99.90;;;;;;6250660;22;20044;-81
2022/06/14 10:45:57;;;;;;;3.05;0.95;;;19.80;99.90;;;;;;6277898;22;20012;-81
2022/06/14 10:48:47;;;;;;;5.32;0.82;;;20.20;99.90;;;;;;6250504;22;20011;-81
2022/06/14 10:51:25;;;;;;;3.63;1.10;;;20.30;99.90;;;;;;6250538;22;20016;-81
2022/06/14 10:54:15;;;;;;;3.08;1.00;;;20.20;99.90;;;;;;6278359;22;20007;-80
2022/06/14 10:56:59;;;;;;;2.35;1.08;;;20.10;99.90;;;;;;6250703;22;20018;-82
2022/06/14 10:59:31;;;;;;;6.65;1.40;;;19.90;99.90;;;;;;6277394;22;20016;-81
2022/06/14 11:02:07;;;;;;;2.70;1.15;;;19.60;99.90;;;;;;6277250;22;20016;-81
2022/06/14 11:05:04;;;;;;;6.28;1.50;;;19.30;99.90;;;;;;6277742;22;20011;-81
2022/06/14 11:07:56;;;;;;;5.25;1.17;;;19.00;99.90;;;;;;6277650;22;20459;-82
2022/06/14 11:10:28;;;;;;;4.70;1.20;;;18.80;99.90;;;;;;6277797;22;20016;-82
2022/06/14 11:13:15;;;;;;;5.18;1.27;;;18.60;99.90;;;;;;6250335;22;20011;-81
2022/06/14 11:15:56;;;;;;;5.80;1.77;;;18.60;99.90;;;;;;6251206;22;20012;-82
2022/06/14 11:18:48;;;;;;;4.75;1.85;;;18.40;99.90;;;;;;6279027;22;20012;-82
2022/06/14 11:21:29;;;;;;;3.15;1.70;;;18.30;99.90;;;;;;6279931;22;20015;-81
2022/06/14 11:23:58;;;;;;;5.00;1.40;;;18.20;99.90;;;;;;6251715;22;20057;-82
2022/06/14 11:26:52;;;;;;;5.30;1.60;;;18.20;99.90;;;;;;6251972;22;20015;-81
2022/06/14 11:29:27;;;;;;;4.13;1.70;;;18.20;99.90;;;;;;6191191;22;20016;-82
2022/06/14 11:32:02;;;;;;;4.93;1.70;;;18.20;99.90;;;;;;6252221;22;20055;-81
2022/06/14 11:34:43;;;;;;;;;;;18.20;99.90;;;;;;6252482;22;20026;-82
2022/06/14 11:37:08;;;;;;;3.13;1.30;;;18.20;99.90;;;;;;6277644;22;19939;-82
2022/06/14 11:39:44;;;;;;;5.60;1.40;;;18.30;99.90;;;;;;6251973;22;20085;-82
2022/06/14 11:42:24;;;;;;;4.15;1.45;;;18.30;99.90;;;;;;6279309;22;20044;-82
2022/06/14 11:45:11;;;;;;;5.40;1.30;;;18.50;99.90;;;;;;6279389;22;20019;-82
2022/06/14 11:47:49;;;;;;;4.38;1.67;;;18.70;99.90;;;;;;6251758;22;20442;-80
2022/06/14 11:50:39;;;;;;;4.57;1.65;;;18.70;99.90;;;;;;6278635;22;20114;-83
2022/06/14 11:53:08;;;;;;;4.85;1.45;;;18.70;99.90;;;;;;6251511;22;20087;-81
2022/06/14 11:55:39;;;;;;;2.05;1.00;;;18.80;99.90;;;;;;6251220;22;20020;-81
2022/06/14 11:58:50;;;;;;;5.03;1.75;;;18.70;99.90;;;;;;6251140;22;20033;-80
2022/06/14 12:01:36;;;;;;;4.15;1.25;;;18.80;99.90;;;;;;6261570;22;20025;-81
2022/06/14 12:04:17;;;;;;;5.10;1.23;;;18.80;99.90;;;;;;6281523;22;20081;-81
2022/06/14 12:06:46;;;;;;;4.60;1.60;;;18.60;99.90;;;;;;6281320;22;20018;-81
2022/06/14 12:09:31;;;;;;;3.33;1.13;;;18.60;99.90;;;;;;6281612;22;20011;-82
2022/06/14 12:12:18;;;;;;;4.05;1.20;;;18.50;99.90;;;;;;6310596;22;20271;-81
2022/06/14 12:15:07;;;;;;;4.35;1.30;;;18.40;99.90;;;;;;6310529;22;20021;-81
2022/06/14 12:17:41;;;;;;;4.68;1.33;;;18.40;99.90;;;;;;6310610;22;20007;-82
2022/06/14 12:20:18;;;;;;;4.07;1.35;;;18.50;99.90;;;;;;6282735;22;20499;-82
2022/06/14 12:23:06;;;;;;;5.97;1.52;;;18.50;99.90;;;;;;6283282;22;20022;-82
2022/06/14 12:28:54;;;;;;;3.72;1.15;;;18.70;99.90;;;;;;6307963;22;20011;-81
2022/06/14 12:31:41;;;;;;;5.00;1.33;;;18.80;99.90;;;;;;6257354;22;20430;-81
2022/06/14 12:34:18;;;;;;;7.18;1.50;;;18.90;99.90;;;;;;6308798;22;20011;-81
2022/06/14 12:37:01;;;;;;;3.17;1.60;;;19.00;99.90;;;;;;6283118;22;20440;-82
2022/06/14 12:39:32;;;;;;;5.97;1.30;;;19.20;99.90;;;;;;6283149;22;20090;-81
2022/06/14 12:42:15;;;;;;;4.90;1.48;;;19.60;99.90;;;;;;6307958;22;20164;-82
2022/06/14 12:44:51;;;;;;;4.68;1.30;;;19.90;99.90;;;;;;6308620;22;20457;-81
2022/06/14 12:47:42;;;;;;;4.05;1.27;;;20.30;99.90;;;;;;6283162;22;20044;-81
2022/06/14 12:50:29;;;;;;;2.97;1.00;;;20.50;99.90;;;;;;6220145;22;20023;-80
2022/06/14 12:53:00;;;;;;;4.45;1.33;;;20.90;99.90;;;;;;6307946;22;20011;-82
2022/06/14 12:55:52;;;;;;;5.40;1.27;;;21.20;99.90;;;;;;6282374;22;20311;-82
2022/06/14 12:58:42;;;;;;;7.95;1.40;;;21.50;99.90;;;;;;6282053;22;20015;-82
2022/06/14 13:01:17;;;;;;;2.45;0.95;;;21.60;99.90;;;;;;6281853;22;20023;-82
2022/06/14 13:03:57;;;;;;;3.05;1.05;;;21.80;99.90;;;;;;6256629;22;20060;-81
2022/06/14 13:06:26;;;;;;;3.08;1.10;;;22.10;99.90;;;;;;6310475;22;20325;-82
2022/06/14 13:09:04;;;;;;;4.55;1.10;;;22.20;99.90;;;;;;6310919;22;20011;-81
2022/06/14 13:11:42;;;;;;;2.92;1.20;;;22.40;99.90;;;;;;6284516;22;20019;-82
2022/06/14 13:14:35;;;;;;;5.13;1.35;;;22.40;99.90;;;;;;6313119;22;20019;-80
2022/06/14 13:17:33;;;;;;;2.92;0.82;;;22.40;99.90;;;;;;6326046;22;20026;-82
2022/06/14 13:20:09;;;;;;;4.05;1.20;;;22.00;99.90;;;;;;6235194;22;20022;-79
2022/06/14 13:23:14;;;;;;;3.03;1.10;;;21.90;99.90;;;;;;6313755;22;20023;-82
2022/06/14 13:26:17;;;;;;;3.97;1.20;;;22.00;99.90;;;;;;6283831;22;20027;-82
2022/06/14 13:29:10;;;;;;;5.60;1.25;;;22.50;99.90;;;;;;6312746;22;20076;-82
2022/06/14 13:31:41;;;;;;;4.70;1.58;;;22.40;99.90;;;;;;6283079;22;20015;-83
2022/06/14 13:34:38;;;;;;;5.00;1.10;;;21.90;99.90;;;;;;6310116;22;20019;-81
2022/06/14 13:37:41;;;;;;;3.55;1.05;;;21.70;99.90;;;;;;6307998;22;20019;-82
2022/06/14 13:40:16;;;;;;;4.05;1.13;;;21.40;99.90;;;;;;6255972;22;20022;-83
2022/06/14 13:42:51;;;;;;;;;;;21.30;99.90;;;;;;6282224;22;20022;-82
2022/06/14 13:45:17;;;;;;;5.30;1.27;;;21.20;99.90;;;;;;6307094;22;19962;-82
2022/06/14 13:47:50;;;;;;;1.92;1.08;;;21.10;99.90;;;;;;6281815;22;20384;-82
2022/06/14 13:50:25;;;;;;;2.70;1.10;;;21.10;99.90;;;;;;6281654;22;20025;-82
2022/06/14 13:53:08;;;;;;;5.68;1.70;;;21.00;99.90;;;;;;6309506;22;20015;-82
2022/06/14 13:55:50;;;;;;;4.03;1.00;;;20.90;99.90;;;;;;6281161;22;20011;-82
2022/06/14 13:58:23;;;;;;;4.90;1.20;;;20.70;99.90;;;;;;6281011;22;20019;-82
2022/06/14 14:01:22;;;;;;;4.40;1.00;;;20.60;99.90;;;;;;6281529;22;20353;-81
2022/06/14 14:03:55;;;;;;;5.25;1.10;;;20.60;99.90;;;;;;6255624;22;20015;-81
2022/06/14 14:06:41;;;;;;;3.38;1.17;;;20.60;99.90;;;;;;6306896;22;20015;-81
2022/06/14 14:09:34;;;;;;;3.08;1.20;;;20.60;99.90;;;;;;6281022;22;20064;-81
2022/06/14 14:12:29;;;;;;;4.43;1.30;;;20.60;99.90;;;;;;6255904;22;20015;-82
2022/06/14 14:15:23;;;;;;;5.95;1.52;;;20.50;99.90;;;;;;6280895;22;20011;-82
2022/06/14 14:18:11;;;;;;;3.50;1.13;;;20.40;99.90;;;;;;6281524;22;20019;-82
2022/06/14 14:20:49;;;;;;;4.80;1.30;;;20.30;99.90;;;;;;6221596;22;20019;-83
2022/06/14 14:23:28;;;;;;;5.15;1.30;;;20.10;99.90;;;;;;6281290;22;20079;-82
2022/06/14 14:26:23;;;;;;;3.00;1.40;;;19.90;99.90;;;;;;6255436;22;20060;-81
2022/06/14 14:29:02;;;;;;;4.70;1.17;;;19.90;99.90;;;;;;6281541;22;20019;-81
2022/06/14 14:31:43;;;;;;;4.65;1.60;;;19.90;99.90;;;;;;6280591;22;20322;-82
2022/06/14 14:34:24;;;;;;;2.70;1.10;;;20.00;99.90;;;;;;6306773;22;20018;-82
2022/06/14 14:37:05;;;;;;;4.15;1.33;;;20.10;99.90;;;;;;6307830;22;20011;-82
2022/06/14 14:39:30;;;;;;;3.92;1.23;;;20.10;99.90;;;;;;6281183;22;20022;-80
2022/06/14 14:42:02;;;;;;;3.08;1.10;;;20.20;99.90;;;;;;6280478;22;20008;-84
2022/06/14 14:44:30;;;;;;;6.07;1.20;;;20.20;99.90;;;;;;6255073;22;20082;-84
2022/06/14 14:47:22;;;;;;;4.53;1.33;;;20.30;99.90;;;;;;6280833;22;20448;-83
2022/06/14 14:50:23;;;;;;;4.03;1.35;;;20.30;99.90;;;;;;6307079;22;20408;-81
2022/06/14 14:53:17;;;;;;;4.85;1.73;;;20.20;99.90;;;;;;6262758;22;20019;-82
2022/06/14 14:56:10;;;;;;;4.68;1.55;;;20.30;99.90;;;;;;6310642;22;20088;-82
2022/06/14 14:58:48;;;;;;;3.28;1.50;;;20.20;99.90;;;;;;6310234;22;20273;-83
2022/06/14 15:07:40;;;;;;;4.53;1.50;;;20.00;99.90;;;;;;6309171;22;20042;-83
2022/06/14 15:10:17;;;;;;;4.10;1.40;;;20.10;99.90;;;;;;6309775;22;20015;-83
2022/06/14 15:12:49;;;;;;;3.33;1.30;;;20.10;99.90;;;;;;6310241;22;20046;-84
2022/06/14 15:15:21;;;;;;;5.95;1.50;;;20.00;99.90;;;;;;6282872;22;20025;-83
2022/06/14 15:20:45;;;;;;;4.15;1.50;;;20.00;99.90;;;;;;6308598;22;20016;-83
2022/06/14 15:23:26;;;;;;;3.83;1.50;;;20.00;99.90;;;;;;6283555;22;20019;-83
2022/06/14 15:25:53;;;;;;;9.98;3.72;;;20.00;99.90;;;;;;6310668;22;20018;-82
2022/06/14 15:28:20;;;;;;;6.95;1.90;;;20.00;99.90;;;;;;6283186;22;20014;-83
2022/06/14 15:30:49;;;;;;;3.28;1.52;;;19.90;99.90;;;;;;6307880;22;20012;-82
2022/06/14 15:33:21;;;;;;;4.80;1.35;;;19.90;99.90;;;;;;6283128;22;20084;-82
2022/06/14 15:35:53;;;;;;;4.90;1.75;;;19.90;99.90;;;;;;6283651;22;20026;-83
2022/06/14 15:38:26;;;;;;;3.35;1.40;;;19.90;99.90;;;;;;6257230;22;20057;-82
2022/06/14 15:41:12;;;;;;;3.50;1.45;;;19.90;99.90;;;;;;6310496;22;20453;-83
2022/06/14 15:43:39;;;;;;;3.20;1.33;;;19.90;99.90;;;;;;6308162;22;20015;-83
2022/06/14 15:46:05;;;;;;;4.03;1.40;;;19.90;99.90;;;;;;6310254;22;20007;-83
2022/06/14 15:48:36;;;;;;;7.43;1.58;;;19.90;99.90;;;;;;6310849;22;20011;-82
2022/06/14 15:51:06;;;;;;;4.97;1.50;;;19.80;99.90;;;;;;6309967;22;20007;-84
2022/06/14 15:53:41;;;;;;;5.35;1.60;;;19.90;99.90;;;;;;6283091;22;20011;-83
2022/06/14 15:56:25;;;;;;;3.83;1.48;;;19.80;99.90;;;;;;6284096;22;20011;-82
2022/06/14 15:59:25;;;;;;;3.88;1.58;;;19.80;99.90;;;;;;6282615;22;20015;-83
2022/06/14 16:01:53;;;;;;;4.45;1.70;;;19.80;99.90;;;;;;6259877;22;20015;-82
2022/06/14 16:04:23;;;;;;;5.30;1.70;;;19.80;99.90;;;;;;6310104;22;20370;-83
2022/06/14 16:07:00;;;;;;;3.42;1.40;;;19.70;99.90;;;;;;6310166;22;20014;-83
2022/06/14 16:09:37;;;;;;;5.20;1.70;;;19.80;99.90;;;;;;6310399;22;20011;-83
2022/06/14 16:12:37;;;;;;;4.53;1.77;;;19.80;99.90;;;;;;6310098;22;20012;-83
2022/06/14 16:15:19;;;;;;;5.07;1.50;;;19.80;99.90;;;;;;6283436;22;20309;-82
2022/06/14 16:17:46;;;;;;;4.32;1.42;;;19.80;99.90;;;;;;6282937;22;20011;-80
2022/06/14 16:20:28;;;;;;;3.58;1.40;;;19.70;99.90;;;;;;6282439;22;20072;-80
2022/06/14 16:23:09;;;;;;;5.07;1.60;;;19.80;99.90;;;;;;6308324;22;20018;-82
2022/06/14 16:25:54;;;;;;;5.03;1.70;;;19.70;99.90;;;;;;6282211;22;20011;-82
2022/06/14 16:28:47;;;;;;;5.55;1.85;;;19.70;99.90;;;;;;6310293;22;20007;-83
2022/06/14 16:31:34;;;;;;;6.63;2.25;;;19.60;99.90;;;;;;6309531;22;20029;-83
2022/06/14 16:34:19;;;;;;;4.93;2.08;;;19.60;99.90;;;;;;6308260;22;20394;-83
2022/06/14 16:37:17;;;;;;;3.63;1.80;;;19.60;99.90;;;;;;6308048;22;20011;-81
2022/06/14 16:40:09;;;;;;;3.80;1.50;;;19.60;99.90;;;;;;6282039;22;20015;-82
2022/06/14 16:42:47;;;;;;;4.05;1.25;;;19.60;99.90;;;;;;6281840;22;20007;-82
2022/06/14 16:45:45;;;;;;;5.70;1.70;;;19.60;99.90;;;;;;6308022;22;20018;-82
2022/06/14 16:48:28;;;;;;;4.07;1.75;;;19.50;99.90;;;;;;6281879;22;20148;-82
2022/06/14 16:51:10;;;;;;;5.35;1.70;;;19.50;99.90;;;;;;6307444;22;20345;-82
2022/06/14 16:53:41;;;;;;;2.88;1.55;;;19.50;99.90;;;;;;6256444;22;20015;-83
2022/06/14 16:56:26;;;;;;;7.47;2.13;;;19.40;99.90;;;;;;6308441;22;20090;-81
2022/06/14 16:59:06;;;;;;;4.88;1.30;;;19.40;99.90;;;;;;6309316;22;20094;-82
2022/06/14 17:01:45;;;;;;;4.65;1.73;;;19.40;99.90;;;;;;6307249;22;20017;-82
2022/06/14 17:04:25;;;;;;;4.43;1.67;;;19.40;99.90;;;;;;6281832;22;20015;-82
2022/06/14 17:07:15;;;;;;;3.75;1.60;;;19.30;99.90;;;;;;6307842;22;20368;-81
2022/06/14 17:09:59;;;;;;;5.60;2.00;;;19.30;99.90;;;;;;6308964;22;20037;-82
2022/06/14 17:12:41;;;;;;;6.32;1.63;;;19.30;99.90;;;;;;6281465;22;20406;-81
2022/06/14 17:15:45;;;;;;;3.97;1.83;;;19.20;99.90;;;;;;6281375;22;20064;-83
2022/06/14 17:18:26;;;;;;;7.03;1.52;;;19.30;99.90;;;;;;6308160;22;20011;-84